Time;durP1;ratioP1;P1;durP2;ratioP2;P2;SDS_P1;SDS_P2;PMS_P1;PMS_P2;Temp;Humidity;BMP_temperature;BMP_pressure;BME280_temperature;BME280_humidity;BME280_pressure;Samples;Min_cycle;Max_cycle;Signal;HPM_P1;HPM_P2
2022/06/10 00:00:33;;;;;;;;;;;;;;;24.35;54.40;99660.44;7305433;19;129847;-37
2022/06/10 00:02:58;;;;;;;;;;;;;;;23.88;50.13;99659.94;7316057;19;130963;-39
2022/06/10 00:05:25;;;;;;;;;;;;;;;23.75;50.01;99667.38;7315923;19;131309;-40
2022/06/10 00:07:50;;;;;;;;;;;;;;;23.74;48.88;99665.75;7314257;19;132037;-40
2022/06/10 00:10:18;;;;;;;;;;;;;;;23.74;49.22;99671.00;7317767;19;129355;-40
2022/06/10 00:12:43;;;;;;;;;;;;;;;24.03;53.50;99676.81;7316086;19;129465;-40
2022/06/10 00:15:09;;;;;;;;;;;;;;;24.11;54.15;99671.63;7315528;19;129619;-39
2022/06/10 00:17:34;;;;;;;;;;;;;;;24.17;53.98;99676.28;7315206;19;130414;-39
2022/06/10 00:20:00;;;;;;;;;;;;;;;24.23;53.96;99680.91;7315706;19;128981;-40
2022/06/10 00:22:25;;;;;;;;;;;;;;;24.26;53.82;99685.03;7316621;19;130422;-39
2022/06/10 00:24:51;;;;;;;;;;;;;;;24.31;53.83;99691.47;7317405;19;129095;-37
2022/06/10 00:27:17;;;;;;;;;;;;;;;24.35;54.13;99689.34;7315496;19;129004;-41
2022/06/10 00:29:42;;;;;;;;;;;;;;;24.34;53.96;99685.94;7315726;19;129728;-41
2022/06/10 00:32:08;;;;;;;;;;;;;;;24.35;54.56;99689.34;7315415;19;129291;-37
2022/06/10 00:34:35;;;;;;;;;;;;;;;24.38;54.29;99697.75;7315326;19;130414;-37
2022/06/10 00:37:01;;;;;;;;;;;;;;;24.38;54.24;99696.94;7315820;19;131911;-38
2022/06/10 00:39:27;;;;;;;;;;;;;;;24.28;54.04;99681.28;7314406;19;129911;-41
2022/06/10 00:41:52;;;;;;;;;;;;;;;24.37;54.09;99706.63;7317407;19;130571;-38
2022/06/10 00:44:44;;;;;;;;;;;;;;;23.90;49.64;99705.25;7311411;19;129698;-38
2022/06/10 00:47:15;;;;;;;;;;;;;;;23.73;49.97;99711.38;7298005;19;130876;-35
2022/06/10 00:49:41;;;;;;;;;;;;;;;23.75;49.17;99709.38;7300220;19;130237;-39
2022/06/10 00:52:14;;;;;;;;;;;;;;;23.90;51.49;99707.06;7299273;19;130275;-38
2022/06/10 00:54:42;;;;;;;;;;;;;;;24.06;53.13;99710.69;7300767;19;130315;-40
2022/06/10 00:57:10;;;;;;;;;;;;;;;24.13;53.58;99714.34;7305397;19;130396;-41
2022/06/10 01:00:01;;;;;;;;;;;;;;;24.19;54.04;99718.16;7314471;19;129171;-41
2022/06/10 01:02:30;;;;;;;;;;;;;;;24.26;54.06;99713.94;7312944;19;130165;-40
2022/06/10 01:04:57;;;;;;;;;;;;;;;24.30;53.73;99721.38;7316414;19;129760;-41
2022/06/10 01:07:24;;;;;;;;;;;;;;;24.34;53.93;99711.38;7314302;19;130145;-38
2022/06/10 01:09:50;;;;;;;;;;;;;;;24.35;54.13;99713.84;7313802;19;129844;-41
2022/06/10 01:12:38;;;;;;;;;;;;;;;24.36;54.21;99717.31;7314296;19;130347;-41
2022/06/10 01:15:04;;;;;;;;;;;;;;;24.26;53.79;99704.25;7313890;19;129740;-41
2022/06/10 01:17:43;;;;;;;;;;;;;;;24.35;54.29;99726.97;7312867;19;130718;-41
2022/06/10 01:20:08;;;;;;;;;;;;;;;24.36;54.66;99731.25;7312468;19;129583;-38
2022/06/10 01:23:00;;;;;;;;;;;;;;;24.34;54.50;99733.22;7313812;19;130371;-37
2022/06/10 01:25:44;;;;;;;;;;;;;;;24.05;51.33;99737.91;7313873;19;132436;-39
2022/06/10 01:28:21;;;;;;;;;;;;;;;23.74;49.60;99738.41;7310969;19;129482;-38
2022/06/10 01:30:55;;;;;;;;;;;;;;;23.65;49.62;99723.59;7315888;19;128926;-41
2022/06/10 01:33:23;;;;;;;;;;;;;;;23.73;48.84;99737.63;7307981;19;130981;-40
2022/06/10 01:35:52;;;;;;;;;;;;;;;24.00;53.05;99740.16;7315085;19;130453;-40
2022/06/10 01:38:20;;;;;;;;;;;;;;;24.09;53.44;99747.16;7306156;19;130905;-40
2022/06/10 01:40:58;;;;;;;;;;;;;;;24.15;54.32;99749.16;7296878;19;130885;-38
2022/06/10 01:43:27;;;;;;;;;;;;;;;24.12;53.55;99735.50;7296908;19;131077;-40
2022/06/10 01:45:55;;;;;;;;;;;;;;;24.27;53.85;99750.56;7297259;19;131170;-39
2022/06/10 01:48:32;;;;;;;;;;;;;;;24.33;54.36;99751.75;7295547;19;130165;-39
2022/06/10 01:51:11;;;;;;;;;;;;;;;24.36;54.00;99756.72;7301756;19;130104;-37
2022/06/10 01:53:44;;;;;;;;;;;;;;;24.36;54.55;99752.28;7309093;19;130346;-39
2022/06/10 01:56:23;;;;;;;;;;;;;;;24.37;54.32;99761.00;7314257;19;130209;-41
2022/06/10 01:58:55;;;;;;;;;;;;;;;24.37;54.68;99763.63;7311523;19;129970;-38
2022/06/10 02:01:32;;;;;;;;;;;;;;;24.36;54.79;99760.16;7310446;19;129782;-39
2022/06/10 02:04:11;;;;;;;;;;;;;;;24.37;54.42;99769.69;7314982;19;131044;-38
2022/06/10 02:06:42;;;;;;;;;;;;;;;24.36;54.65;99773.28;7311977;19;130323;-37
2022/06/10 02:09:10;;;;;;;;;;;;;;;24.04;50.92;99773.06;7312944;19;130049;-37
2022/06/10 02:11:37;;;;;;;;;;;;;;;23.75;50.19;99772.41;7310323;19;130554;-37
2022/06/10 02:14:21;;;;;;;;;;;;;;;23.72;49.48;99779.75;7313242;19;129662;-37
2022/06/10 02:16:48;;;;;;;;;;;;;;;23.73;48.49;99777.00;7311430;19;131091;-37
2022/06/10 02:19:13;;;;;;;;;;;;;;;23.97;52.07;99782.47;7312179;19;129814;-37
2022/06/10 02:21:48;;;;;;;;;;;;;;;24.10;53.01;99788.19;7314110;19;129943;-37
2022/06/10 02:24:34;;;;;;;;;;;;;;;24.04;53.50;99777.47;7308992;19;130151;-37
2022/06/10 02:27:03;;;;;;;;;;;;;;;24.20;54.16;99804.69;7312775;19;129444;-37
2022/06/10 02:29:31;;;;;;;;;;;;;;;24.26;53.79;99804.09;7311902;19;129630;-37
2022/06/10 02:31:58;;;;;;;;;;;;;;;24.30;53.59;99805.44;7311067;19;129081;-37
2022/06/10 02:34:23;;;;;;;;;;;;;;;24.32;53.91;99808.75;7312499;19;129356;-37
2022/06/10 02:36:57;;;;;;;;;;;;;;;24.35;53.58;99810.25;7311862;19;129195;-38
2022/06/10 02:39:25;;;;;;;;;;;;;;;24.34;54.51;99812.06;7313949;19;129621;-37
2022/06/10 02:42:01;;;;;;;;;;;;;;;24.36;54.26;99825.06;7311378;19;128990;-37
2022/06/10 02:44:34;;;;;;;;;;;;;;;24.36;53.95;99828.47;7312522;19;134689;-37
2022/06/10 02:47:06;;;;;;;;;;;;;;;24.36;54.36;99825.84;7311051;19;129623;-37
2022/06/10 02:49:33;;;;;;;;;;;;;;;24.34;54.45;99825.19;7311357;19;129270;-38
2022/06/10 02:51:59;;;;;;;;;;;;;;;24.34;54.54;99827.84;7312473;19;129249;-37
2022/06/10 02:54:32;;;;;;;;;;;;;;;23.80;49.88;99827.91;7313548;19;130488;-37
2022/06/10 02:57:01;;;;;;;;;;;;;;;23.69;49.47;99836.00;7313274;19;129609;-37
2022/06/10 03:02:17;;;;;;;;;;;;;;;23.94;51.32;99844.97;7312702;19;128992;-37
2022/06/10 03:04:48;;;;;;;;;;;;;;;24.05;53.16;99837.72;7306693;19;130130;-38
2022/06/10 03:07:19;;;;;;;;;;;;;;;24.11;53.81;99842.38;7310273;19;131070;-37
2022/06/10 03:10:03;;;;;;;;;;;;;;;24.10;53.98;99840.72;7310276;19;129182;-37
2022/06/10 03:12:37;;;;;;;;;;;;;;;24.23;53.96;99856.09;7310728;19;129209;-37
2022/06/10 03:15:03;;;;;;;;;;;;;;;24.28;54.20;99862.56;7311252;19;130381;-37
2022/06/10 03:17:46;;;;;;;;;;;;;;;24.32;54.06;99870.97;7307162;19;130923;-38
2022/06/10 03:20:21;;;;;;;;;;;;;;;24.33;53.75;99875.25;7309709;19;129488;-37
2022/06/10 03:22:49;;;;;;;;;;;;;;;24.34;54.54;99875.13;7308144;19;129253;-37
2022/06/10 03:25:19;;;;;;;;;;;;;;;24.34;54.53;99880.38;7309650;19;129118;-38
2022/06/10 03:28:03;;;;;;;;;;;;;;;24.36;54.11;99886.28;7308753;19;131152;-37
2022/06/10 03:30:34;;;;;;;;;;;;;;;24.24;54.65;99863.88;7310079;19;129313;-37
2022/06/10 03:33:12;;;;;;;;;;;;;;;24.33;54.34;99883.97;7307453;19;129470;-37
2022/06/10 03:35:49;;;;;;;;;;;;;;;24.16;52.13;99884.78;7313257;19;129986;-37
2022/06/10 03:38:14;;;;;;;;;;;;;;;23.75;49.87;99890.53;7308231;19;131600;-37
2022/06/10 03:40:40;;;;;;;;;;;;;;;23.62;49.45;99876.13;7309644;19;129224;-37
2022/06/10 03:43:07;;;;;;;;;;;;;;;23.72;49.01;99882.13;7294349;19;130636;-37
2022/06/10 03:45:35;;;;;;;;;;;;;;;23.96;52.55;99895.56;7298806;19;131730;-37
2022/06/10 03:48:01;;;;;;;;;;;;;;;23.99;53.77;99885.63;7301957;19;130846;-38
2022/06/10 03:50:29;;;;;;;;;;;;;;;24.01;54.04;99894.19;7302025;19;130664;-38
2022/06/10 03:52:54;;;;;;;;;;;;;;;24.17;53.88;99907.47;7308470;19;129113;-37
2022/06/10 03:55:20;;;;;;;;;;;;;;;24.26;53.51;99919.69;7306066;19;129856;-37
2022/06/10 03:57:46;;;;;;;;;;;;;;;24.30;53.50;99921.06;7301514;19;130249;-37
2022/06/10 04:00:16;;;;;;;;;;;;;;;24.33;54.08;99923.38;7307947;19;130142;-37
2022/06/10 04:02:42;;;;;;;;;;;;;;;24.35;53.88;99925.88;7307505;19;130100;-37
2022/06/10 04:05:08;;;;;;;;;;;;;;;24.36;53.74;99930.16;7310411;19;130148;-37
2022/06/10 04:07:33;;;;;;;;;;;;;;;24.35;53.88;99942.47;7308656;19;130571;-37
2022/06/10 04:09:59;;;;;;;;;;;;;;;24.36;53.81;99952.00;7309999;19;130118;-36
2022/06/10 04:12:25;;;;;;;;;;;;;;;24.34;54.85;99950.50;7310025;19;129361;-37
2022/06/10 04:14:51;;;;;;;;;;;;;;;24.36;53.81;99945.94;7305147;19;131225;-36
2022/06/10 04:17:16;;;;;;;;;;;;;;;24.21;52.80;99950.03;7310489;19;130456;-37
2022/06/10 04:19:41;;;;;;;;;;;;;;;23.75;50.20;99950.13;7306730;19;130641;-37
2022/06/10 04:22:07;;;;;;;;;;;;;;;23.70;49.11;99947.91;7308878;19;129594;-37
2022/06/10 04:24:32;;;;;;;;;;;;;;;23.70;49.49;99955.78;7309139;19;129447;-37
2022/06/10 04:26:57;;;;;;;;;;;;;;;23.90;52.02;99946.84;7308791;19;130213;-37
2022/06/10 04:29:23;;;;;;;;;;;;;;;24.03;53.79;99955.25;7309507;19;129417;-37
2022/06/10 04:31:48;;;;;;;;;;;;;;;24.11;53.69;99950.06;7304958;19;130861;-37
2022/06/10 04:34:14;;;;;;;;;;;;;;;24.17;53.46;99956.56;7306949;19;130098;-37
2022/06/10 04:36:39;;;;;;;;;;;;;;;24.21;53.74;99953.47;7308852;19;129303;-37
2022/06/10 04:39:05;;;;;;;;;;;;;;;24.25;54.31;99948.75;7307360;19;128829;-37
2022/06/10 04:41:31;;;;;;;;;;;;;;;24.30;54.13;99960.47;7306398;19;129098;-37
2022/06/10 04:43:56;;;;;;;;;;;;;;;24.31;53.77;99959.50;7305488;19;130456;-37
2022/06/10 04:46:29;;;;;;;;;;;;;;;24.33;54.12;99957.56;7308506;19;130375;-38
2022/06/10 04:48:55;;;;;;;;;;;;;;;24.34;54.29;99964.47;7312390;19;129346;-37
2022/06/10 04:51:20;;;;;;;;;;;;;;;24.35;54.50;99965.28;7309396;19;132043;-37
2022/06/10 04:53:45;;;;;;;;;;;;;;;24.34;54.62;99969.75;7312569;19;130779;-37
2022/06/10 04:56:11;;;;;;;;;;;;;;;24.35;54.27;99971.38;7309276;19;129928;-38
2022/06/10 04:58:36;;;;;;;;;;;;;;;24.36;54.66;99973.03;7309871;19;129504;-37
2022/06/10 05:01:01;;;;;;;;;;;;;;;23.87;50.40;99976.03;7311854;19;129676;-37
2022/06/10 05:03:26;;;;;;;;;;;;;;;23.70;49.95;99979.41;7314582;19;129247;-37
2022/06/10 05:05:52;;;;;;;;;;;;;;;23.69;49.13;99980.38;7315581;19;129351;-37
2022/06/10 05:08:18;;;;;;;;;;;;;;;23.64;48.96;99968.66;7305716;19;129607;-37
2022/06/10 05:10:44;;;;;;;;;;;;;;;23.99;52.90;99985.41;7317612;19;129021;-37
2022/06/10 05:13:09;;;;;;;;;;;;;;;24.03;53.85;99981.50;7315352;19;129780;-37
2022/06/10 05:15:34;;;;;;;;;;;;;;;24.12;53.60;99996.41;7316937;19;129196;-37
2022/06/10 05:17:59;;;;;;;;;;;;;;;24.17;54.28;99993.34;7297022;19;129801;-37
2022/06/10 05:20:30;;;;;;;;;;;;;;;24.24;54.18;99999.66;7315104;19;129041;-37
2022/06/10 05:22:55;;;;;;;;;;;;;;;24.21;54.24;99985.00;7315384;19;131061;-37
2022/06/10 05:25:21;;;;;;;;;;;;;;;24.23;53.42;99983.06;7302814;19;129525;-37
2022/06/10 05:27:46;;;;;;;;;;;;;;;24.32;54.15;100005.84;7311250;19;129008;-37
2022/06/10 05:30:15;;;;;;;;;;;;;;;24.34;53.64;100011.78;7314827;19;129099;-37
2022/06/10 05:32:41;;;;;;;;;;;;;;;24.22;54.61;99986.69;7315521;19;130204;-37
2022/06/10 05:35:06;;;;;;;;;;;;;;;24.32;54.01;100005.84;7315042;19;129502;-37
2022/06/10 05:37:31;;;;;;;;;;;;;;;24.26;54.25;99997.72;7311800;19;128836;-37
2022/06/10 05:39:57;;;;;;;;;;;;;;;24.35;54.04;100007.34;7314263;19;129102;-37
2022/06/10 05:42:22;;;;;;;;;;;;;;;24.08;51.36;100010.78;7315839;19;130547;-38
2022/06/10 05:44:49;;;;;;;;;;;;;;;23.74;49.47;100009.66;7316278;19;129440;-37
2022/06/10 05:47:35;;;;;;;;;;;;;;;23.69;49.49;100017.16;7313502;19;128932;-37
2022/06/10 05:50:01;;;;;;;;;;;;;;;23.71;48.66;100023.09;7314184;19;129218;-37
2022/06/10 05:52:28;;;;;;;;;;;;;;;23.97;52.54;100028.50;7315416;19;130485;-37
2022/06/10 05:54:55;;;;;;;;;;;;;;;24.06;53.70;100019.81;7316354;19;129200;-37
2022/06/10 05:57:20;;;;;;;;;;;;;;;24.11;53.99;100015.75;7313752;19;129897;-37
2022/06/10 05:59:52;;;;;;;;;;;;;;;24.17;54.11;100025.69;7315421;19;129932;-37
2022/06/10 06:02:18;;;;;;;;;;;;;;;24.23;53.75;100017.22;7313562;19;130031;-37
2022/06/10 06:04:44;;;;;;;;;;;;;;;24.27;54.38;100031.72;7314213;19;130328;-37
2022/06/10 06:07:10;;;;;;;;;;;;;;;24.29;54.06;100024.53;7312191;19;129643;-37
2022/06/10 06:09:36;;;;;;;;;;;;;;;24.23;53.74;100011.97;7313944;19;129222;-37
2022/06/10 06:12:01;;;;;;;;;;;;;;;24.33;54.09;100027.66;7314912;19;129125;-37
2022/06/10 06:14:27;;;;;;;;;;;;;;;24.33;53.81;100027.66;7314843;19;130363;-36
2022/06/10 06:16:54;;;;;;;;;;;;;;;24.29;54.67;100029.78;7313061;19;129232;-37
2022/06/10 06:19:20;;;;;;;;;;;;;;;24.33;54.87;100036.38;7313832;19;128829;-37
2022/06/10 06:21:45;;;;;;;;;;;;;;;24.33;54.47;100036.38;7312147;19;130491;-37
2022/06/10 06:24:10;;;;;;;;;;;;;;;24.34;53.86;100038.06;7313570;19;132123;-37
2022/06/10 06:26:35;;;;;;;;;;;;;;;23.71;49.94;100022.25;7314657;19;129761;-37
2022/06/10 06:29:01;;;;;;;;;;;;;;;23.69;49.27;100046.03;7311577;19;129463;-37
2022/06/10 06:31:26;;;;;;;;;;;;;;;23.69;49.33;100040.78;7313231;19;130064;-37
2022/06/10 06:33:51;;;;;;;;;;;;;;;23.66;49.33;100046.31;7311852;19;130338;-37
2022/06/10 06:36:21;;;;;;;;;;;;;;;23.88;53.78;100040.69;7313048;19;129352;-37
2022/06/10 06:38:46;;;;;;;;;;;;;;;24.05;53.42;100053.13;7309151;19;128944;-37
2022/06/10 06:41:11;;;;;;;;;;;;;;;24.12;54.04;100058.63;7312342;19;129543;-40
2022/06/10 06:43:37;;;;;;;;;;;;;;;24.18;53.32;100053.63;7313772;19;129434;-38
2022/06/10 06:46:03;;;;;;;;;;;;;;;24.23;53.66;100061.88;7313579;19;129482;-38
2022/06/10 06:48:28;;;;;;;;;;;;;;;24.28;54.26;100059.66;7309565;19;129059;-41
2022/06/10 06:50:54;;;;;;;;;;;;;;;24.28;54.34;100059.66;7313294;19;129196;-36
2022/06/10 06:53:19;;;;;;;;;;;;;;;24.30;54.42;100057.72;7311363;19;129150;-38
2022/06/10 06:55:44;;;;;;;;;;;;;;;24.31;54.24;100064.63;7313166;19;129408;-37
2022/06/10 06:58:16;;;;;;;;;;;;;;;24.30;54.21;100062.97;7309876;19;129636;-37
2022/06/10 07:00:41;;;;;;;;;;;;;;;24.33;54.76;100060.03;7310856;19;129446;-36
2022/06/10 07:03:06;;;;;;;;;;;;;;;24.32;53.80;100068.91;7313214;19;130477;-39
2022/06/10 07:05:32;;;;;;;;;;;;;;;24.32;54.39;100074.16;7310783;19;128945;-37
2022/06/10 07:07:58;;;;;;;;;;;;;;;24.27;54.97;100052.75;7308881;19;130219;-36
2022/06/10 07:10:23;;;;;;;;;;;;;;;23.79;49.99;100067.84;7311251;19;129647;-37
2022/06/10 07:12:48;;;;;;;;;;;;;;;23.57;50.11;100052.41;7312504;19;129051;-40
2022/06/10 07:15:14;;;;;;;;;;;;;;;23.66;49.42;100056.81;7314375;19;129084;-41
2022/06/10 07:17:39;;;;;;;;;;;;;;;23.69;49.55;100067.03;7306259;19;129611;-40
2022/06/10 07:20:06;;;;;;;;;;;;;;;23.94;53.17;100055.91;7310573;19;129845;-37
2022/06/10 07:22:31;;;;;;;;;;;;;;;24.05;53.12;100057.53;7311272;19;131341;-39
2022/06/10 07:24:56;;;;;;;;;;;;;;;24.04;53.91;100050.63;7313230;19;128909;-41
2022/06/10 07:27:22;;;;;;;;;;;;;;;24.16;53.64;100073.13;7310293;19;129774;-39
2022/06/10 07:29:47;;;;;;;;;;;;;;;24.14;54.12;100059.31;7309015;19;130137;-39
2022/06/10 07:32:13;;;;;;;;;;;;;;;24.26;53.48;100072.09;7312966;19;129614;-39
2022/06/10 07:34:38;;;;;;;;;;;;;;;24.29;53.96;100079.72;7312259;19;130642;-39
2022/06/10 07:37:04;;;;;;;;;;;;;;;24.25;53.51;100070.47;7311009;19;129120;-37
2022/06/10 07:39:31;;;;;;;;;;;;;;;24.31;53.93;100085.63;7312066;19;130147;-38
2022/06/10 07:42:02;;;;;;;;;;;;;;;24.32;53.78;100078.59;7308990;19;129833;-40
2022/06/10 07:44:32;;;;;;;;;;;;;;;24.29;54.21;100077.09;7312394;19;128979;-41
2022/06/10 07:46:58;;;;;;;;;;;;;;;24.30;54.67;100084.00;7310866;19;129284;-41
2022/06/10 07:49:24;;;;;;;;;;;;;;;24.33;53.91;100083.69;7311633;19;130185;-40
2022/06/10 07:51:49;;;;;;;;;;;;;;;24.08;51.72;100084.34;7310997;19;130985;-40
2022/06/10 07:54:14;;;;;;;;;;;;;;;23.59;50.28;100063.59;7311488;19;128780;-39
2022/06/10 07:56:40;;;;;;;;;;;;;;;23.64;49.93;100082.38;7310980;19;129381;-41
2022/06/10 07:59:06;;;;;;;;;;;;;;;23.58;49.00;100069.81;7311012;19;129459;-41
2022/06/10 08:01:32;;;;;;;;;;;;;;;23.86;52.63;100081.22;7308959;19;129449;-41
2022/06/10 08:03:57;;;;;;;;;;;;;;;23.98;53.15;100094.06;7311972;19;129470;-41
2022/06/10 08:06:23;;;;;;;;;;;;;;;24.06;53.71;100091.56;7311418;19;128834;-38
2022/06/10 08:08:49;;;;;;;;;;;;;;;24.11;53.75;100084.06;7307651;19;129175;-40
2022/06/10 08:11:15;;;;;;;;;;;;;;;24.19;53.63;100080.72;7311448;19;130306;-38
2022/06/10 08:13:40;;;;;;;;;;;;;;;24.21;53.98;100076.16;7310870;19;128998;-40
2022/06/10 08:16:05;;;;;;;;;;;;;;;24.26;53.45;100077.34;7311745;19;129113;-40
2022/06/10 08:18:34;;;;;;;;;;;;;;;24.26;53.86;100077.34;7307819;19;129918;-41
2022/06/10 08:23:44;;;;;;;;;;;;;;;24.28;53.95;100079.84;7317251;19;129408;-39
2022/06/10 08:26:09;;;;;;;;;;;;;;;24.29;54.29;100077.09;7317364;19;129432;-39
2022/06/10 08:28:36;;;;;;;;;;;;;;;24.30;53.87;100077.91;7315880;19;130465;-41
2022/06/10 08:31:01;;;;;;;;;;;;;;;24.27;54.25;100073.78;7316372;19;129870;-39
2022/06/10 08:33:27;;;;;;;;;;;;;;;24.31;54.88;100079.56;7317813;19;128903;-41
2022/06/10 08:35:52;;;;;;;;;;;;;;;23.75;50.32;100066.44;7317869;19;129471;-40
2022/06/10 08:38:18;;;;;;;;;;;;;;;23.65;50.05;100070.88;7314264;19;130749;-40
2022/06/10 08:40:46;;;;;;;;;;;;;;;23.66;49.71;100080.44;7316139;19;129617;-41
2022/06/10 08:43:20;;;;;;;;;;;;;;;23.60;50.03;100067.84;7316276;19;129450;-39
2022/06/10 08:45:53;;;;;;;;;;;;;;;23.98;52.99;100083.56;7318261;19;129149;-41
2022/06/10 08:48:35;;;;;;;;;;;;;;;24.05;53.70;100073.28;7313717;19;131402;-38
2022/06/10 08:51:06;;;;;;;;;;;;;;;24.13;53.25;100089.19;7316093;19;129538;-40
2022/06/10 08:53:44;;;;;;;;;;;;;;;24.17;53.39;100094.00;7317707;19;129253;-40
2022/06/10 08:56:21;;;;;;;;;;;;;;;24.21;54.41;100084.84;7316438;19;129618;-37
2022/06/10 08:58:49;;;;;;;;;;;;;;;24.26;53.98;100087.88;7313637;19;131029;-40
2022/06/10 09:01:19;;;;;;;;;;;;;;;24.28;54.09;100091.19;7316396;19;129210;-37
2022/06/10 09:03:47;;;;;;;;;;;;;;;24.28;53.78;100080.69;7316493;19;129063;-41
2022/06/10 09:06:16;;;;;;;;;;;;;;;24.30;54.46;100088.41;7317689;19;129621;-39
2022/06/10 09:08:44;;;;;;;;;;;;;;;24.30;54.27;100081.38;7313467;19;129998;-40
2022/06/10 09:11:12;;;;;;;;;;;;;;;24.29;54.09;100084.13;7316650;19;129142;-39
2022/06/10 09:13:39;;;;;;;;;;;;;;;24.29;54.17;100087.59;7317166;19;129387;-40
2022/06/10 09:16:13;;;;;;;;;;;;;;;24.27;54.76;100092.16;7317336;19;128981;-40
2022/06/10 09:18:39;;;;;;;;;;;;;;;23.95;51.48;100088.22;7311533;19;129491;-39
2022/06/10 09:21:19;;;;;;;;;;;;;;;23.67;50.29;100089.16;7314471;19;129335;-40
2022/06/10 09:23:45;;;;;;;;;;;;;;;23.63;49.60;100088.59;7316348;19;128952;-37
2022/06/10 09:26:28;;;;;;;;;;;;;;;23.66;49.46;100090.94;7313572;19;129016;-41
2022/06/10 09:28:53;;;;;;;;;;;;;;;23.91;52.30;100098.22;7314765;19;131087;-41
2022/06/10 09:31:27;;;;;;;;;;;;;;;24.01;53.85;100104.31;7311296;19;129872;-38
2022/06/10 09:34:04;;;;;;;;;;;;;;;24.08;53.83;100100.09;7313219;19;128957;-41
2022/06/10 09:36:45;;;;;;;;;;;;;;;24.13;53.76;100095.25;7314096;19;128814;-39
2022/06/10 09:40:35;;;;;;;;;;;;;;;24.19;54.09;100099.13;7314924;19;130201;-41
2022/06/10 09:42:02;;;;;;;;;;;;;;;24.22;53.75;100102.28;7312758;19;130187;-38
2022/06/10 09:44:38;;;;;;;;;;;;;;;24.23;54.66;100096.03;7316119;19;129386;-37
2022/06/10 09:47:22;;;;;;;;;;;;;;;24.28;54.35;100095.59;7314678;19;129202;-38
2022/06/10 09:49:50;;;;;;;;;;;;;;;24.26;53.88;100100.19;7312067;19;130193;-41
2022/06/10 09:52:35;;;;;;;;;;;;;;;24.28;54.58;100106.94;7316092;19;129734;-41
2022/06/10 09:55:19;;;;;;;;;;;;;;;24.27;54.76;100100.06;7314137;19;129030;-38
2022/06/10 09:57:59;;;;;;;;;;;;;;;24.19;54.10;100092.06;7313744;19;129102;-41
2022/06/10 10:00:31;;;;;;;;;;;;;;;24.27;54.84;100100.06;7315705;19;129264;-40
2022/06/10 10:03:02;;;;;;;;;;;;;;;23.88;51.12;100101.09;7315790;19;131092;-41
2022/06/10 10:05:39;;;;;;;;;;;;;;;23.66;49.93;100098.81;7315632;19;129436;-41
2022/06/10 10:08:04;;;;;;;;;;;;;;;23.63;49.76;100099.09;7311723;19;129664;-39
2022/06/10 10:10:33;;;;;;;;;;;;;;;23.67;48.70;100100.47;7314610;19;130359;-41
2022/06/10 10:12:58;;;;;;;;;;;;;;;23.88;52.41;100095.03;7315260;19;130325;-38
2022/06/10 10:15:28;;;;;;;;;;;;;;;24.00;53.39;100096.53;7314217;19;128886;-37
2022/06/10 10:18:11;;;;;;;;;;;;;;;24.06;53.63;100090.72;7311085;19;130078;-36
2022/06/10 10:20:56;;;;;;;;;;;;;;;24.13;54.14;100090.00;7312614;19;130993;-38
2022/06/10 10:23:25;;;;;;;;;;;;;;;24.15;53.87;100088.06;7312451;19;130571;-38
2022/06/10 10:25:51;;;;;;;;;;;;;;;24.20;54.39;100083.19;7313746;19;129493;-38
2022/06/10 10:28:24;;;;;;;;;;;;;;;24.26;54.13;100087.06;7310154;19;130097;-36
2022/06/10 10:30:55;;;;;;;;;;;;;;;24.27;54.20;100084.28;7313926;19;129286;-38
2022/06/10 10:33:20;;;;;;;;;;;;;;;24.27;54.01;100088.72;7311420;19;131036;-37
2022/06/10 10:35:48;;;;;;;;;;;;;;;24.26;54.78;100093.13;7314952;19;129080;-37
2022/06/10 10:38:29;;;;;;;;;;;;;;;24.29;54.35;100098.13;7310351;19;129880;-37
2022/06/10 10:40:54;;;;;;;;;;;;;;;24.20;54.34;100082.38;7313658;19;129295;-37
2022/06/10 10:43:21;;;;;;;;;;;;;;;24.27;53.98;100091.34;7311714;19;129844;-37
2022/06/10 10:45:53;;;;;;;;;;;;;;;23.96;51.15;100090.75;7312009;19;129285;-37
2022/06/10 10:48:20;;;;;;;;;;;;;;;23.65;49.54;100091.09;7309355;19;130582;-37
2022/06/10 10:50:54;;;;;;;;;;;;;;;23.64;49.73;100090.25;7312829;19;129690;-37
2022/06/10 10:53:25;;;;;;;;;;;;;;;23.62;49.06;100084.31;7312594;19;129416;-37
2022/06/10 10:55:54;;;;;;;;;;;;;;;23.89;53.20;100088.81;7313723;19;129479;-37
2022/06/10 10:58:24;;;;;;;;;;;;;;;24.01;53.07;100085.91;7308775;19;128938;-37
2022/06/10 11:04:09;;;;;;;;;;;;;;;24.14;53.43;100094.31;7305802;19;132207;-37
2022/06/10 11:06:36;;;;;;;;;;;;;;;24.17;53.39;100094.00;7313907;19;128750;-37
2022/06/10 11:09:13;;;;;;;;;;;;;;;24.21;54.12;100089.28;7311729;19;130170;-37
2022/06/10 11:11:40;;;;;;;;;;;;;;;24.25;54.19;100091.47;7311994;19;129482;-37
2022/06/10 11:14:20;;;;;;;;;;;;;;;24.27;54.32;100084.28;7312076;19;130288;-36
2022/06/10 11:16:59;;;;;;;;;;;;;;;24.27;53.58;100084.28;7312702;19;129115;-37
2022/06/10 11:19:25;;;;;;;;;;;;;;;24.28;54.56;100088.56;7310170;19;129404;-37
2022/06/10 11:22:09;;;;;;;;;;;;;;;24.26;54.27;100081.81;7311379;19;129862;-37
2022/06/10 11:24:37;;;;;;;;;;;;;;;24.30;54.03;100081.38;7312370;19;129576;-37
2022/06/10 11:27:18;;;;;;;;;;;;;;;24.28;54.24;100074.59;7311476;19;129693;-36
2022/06/10 11:29:45;;;;;;;;;;;;;;;23.74;49.56;100070.06;7311370;19;129635;-37
2022/06/10 11:32:18;;;;;;;;;;;;;;;23.63;50.03;100072.84;7310556;19;129525;-37
2022/06/10 11:34:44;;;;;;;;;;;;;;;23.62;49.00;100073.81;7311521;19;129185;-37
2022/06/10 11:37:28;;;;;;;;;;;;;;;23.66;50.47;100062.06;7307822;19;129519;-37
2022/06/10 11:39:59;;;;;;;;;;;;;;;23.90;53.10;100065.03;7311218;19;129583;-37
2022/06/10 11:42:31;;;;;;;;;;;;;;;24.03;53.76;100062.13;7309521;19;129318;-36
2022/06/10 11:44:59;;;;;;;;;;;;;;;24.07;53.25;100060.84;7311998;19;130993;-37
2022/06/10 11:47:34;;;;;;;;;;;;;;;24.14;53.48;100062.78;7306366;19;129066;-38
2022/06/10 11:50:11;;;;;;;;;;;;;;;24.16;53.63;100055.56;7309400;19;129340;-37
2022/06/10 11:52:59;;;;;;;;;;;;;;;24.20;53.76;100054.31;7312119;19;130048;-38
2022/06/10 11:55:26;;;;;;;;;;;;;;;24.24;53.75;100052.22;7312740;19;131515;-37
2022/06/10 12:00:59;;;;;;;;;;;;;;;24.23;54.26;100050.53;7317939;19;129118;-37
2022/06/10 12:03:35;;;;;;;;;;;;;;;24.23;54.07;100051.38;7317643;19;130454;-38
2022/06/10 12:06:07;;;;;;;;;;;;;;;24.22;54.82;100044.47;7317858;19;129507;-37
2022/06/10 12:08:38;;;;;;;;;;;;;;;24.15;54.81;100032.91;7315098;19;129067;-37
2022/06/10 12:11:12;;;;;;;;;;;;;;;23.83;50.12;100047.38;7316403;19;131732;-37
2022/06/10 12:13:41;;;;;;;;;;;;;;;23.63;49.92;100046.59;7316019;19;130809;-37
2022/06/10 12:16:07;;;;;;;;;;;;;;;23.63;49.81;100043.13;7315598;19;129848;-37
2022/06/10 12:18:35;;;;;;;;;;;;;;;23.66;49.29;100048.94;7312470;19;128988;-37
2022/06/10 12:21:03;;;;;;;;;;;;;;;23.84;52.76;100030.63;7318021;19;128974;-37
2022/06/10 12:23:30;;;;;;;;;;;;;;;23.97;53.57;100034.59;7316645;19;130530;-37
2022/06/10 12:26:02;;;;;;;;;;;;;;;24.05;53.66;100042.63;7319493;19;129990;-37
2022/06/10 12:28:30;;;;;;;;;;;;;;;24.11;53.79;100034.13;7313305;19;128804;-38
2022/06/10 12:31:06;;;;;;;;;;;;;;;24.15;54.27;100032.91;7318877;19;128877;-38
2022/06/10 12:33:39;;;;;;;;;;;;;;;24.18;54.31;100027.34;7317735;19;129172;-37
2022/06/10 12:36:06;;;;;;;;;;;;;;;24.17;54.49;100036.22;7315489;19;129814;-37
2022/06/10 12:38:37;;;;;;;;;;;;;;;24.19;54.10;100031.63;7313392;19;129370;-37
2022/06/10 12:41:10;;;;;;;;;;;;;;;24.19;53.87;100034.28;7314998;19;129593;-37
2022/06/10 12:43:38;;;;;;;;;;;;;;;24.20;54.03;100032.44;7316383;19;129798;-37
2022/06/10 12:46:11;;;;;;;;;;;;;;;24.18;54.68;100027.34;7314062;19;129787;-37
2022/06/10 12:48:47;;;;;;;;;;;;;;;24.19;54.81;100029.00;7315844;19;129161;-37
2022/06/10 12:51:12;;;;;;;;;;;;;;;24.18;54.21;100035.22;7316933;19;129447;-37
2022/06/10 12:53:49;;;;;;;;;;;;;;;24.19;54.35;100033.44;7317047;19;130468;-37